createdAt,value
2022-11-07T00:00:50.093Z,3.20
2022-11-07T00:03:17.541Z,5.22
2022-11-07T00:05:44.887Z,4.57
2022-11-07T00:08:11.860Z,4.60
2022-11-07T00:10:38.817Z,3.33
2022-11-07T00:13:05.800Z,5.00
2022-11-07T00:15:32.787Z,4.40
2022-11-07T00:17:59.757Z,5.85
2022-11-07T00:20:26.704Z,4.82
2022-11-07T00:22:53.655Z,4.40
2022-11-07T00:25:20.718Z,5.55
2022-11-07T00:27:47.674Z,4.43
2022-11-07T00:30:14.752Z,5.32
2022-11-07T00:32:41.721Z,4.68
2022-11-07T00:35:08.941Z,3.95
2022-11-07T00:37:35.891Z,4.43
2022-11-07T00:40:03.127Z,4.45
2022-11-07T00:42:30.077Z,5.10
2022-11-07T00:44:57.084Z,8.68
2022-11-07T00:47:24.086Z,5.82
2022-11-07T00:49:51.110Z,5.38
2022-11-07T00:52:18.111Z,4.13
2022-11-07T00:54:45.034Z,5.63
2022-11-07T00:57:12.007Z,4.82
2022-11-07T00:59:38.978Z,4.40
2022-11-07T01:02:06.055Z,6.88
2022-11-07T01:04:33.109Z,4.32
2022-11-07T01:07:01.665Z,5.18
2022-11-07T01:09:28.731Z,7.22
2022-11-07T01:11:55.723Z,4.25
2022-11-07T01:14:23.396Z,4.05
2022-11-07T01:16:51.255Z,4.25
2022-11-07T01:19:19.468Z,5.03
2022-11-07T01:21:46.659Z,7.60
2022-11-07T01:24:14.663Z,3.67
2022-11-07T01:26:43.254Z,4.38
2022-11-07T01:29:10.389Z,3.63
2022-11-07T01:31:37.413Z,5.78
2022-11-07T01:34:04.593Z,6.30
2022-11-07T01:36:32.147Z,4.53
2022-11-07T01:38:59.206Z,3.95
2022-11-07T01:41:29.991Z,3.70
2022-11-07T01:44:02.597Z,5.38
2022-11-07T01:46:40.905Z,3.63
2022-11-07T01:49:24.147Z,3.63
2022-11-07T01:52:05.745Z,3.67
2022-11-07T01:54:40.365Z,4.18
2022-11-07T01:57:13.816Z,6.30
2022-11-07T01:59:41.403Z,4.53
2022-11-07T02:02:09.161Z,4.60
2022-11-07T02:04:36.576Z,7.10
2022-11-07T02:07:13.146Z,4.65
2022-11-07T02:09:41.350Z,5.13
2022-11-07T02:12:09.031Z,5.82
2022-11-07T02:14:36.210Z,5.53
2022-11-07T02:17:03.743Z,5.60
2022-11-07T02:19:34.872Z,3.80
2022-11-07T02:22:29.709Z,5.43
2022-11-07T02:25:00.255Z,5.60
2022-11-07T02:27:29.935Z,5.30
2022-11-07T02:30:01.936Z,5.75
2022-11-07T02:32:29.027Z,6.28
2022-11-07T02:35:00.239Z,4.30
2022-11-07T02:37:31.982Z,7.47
2022-11-07T02:42:27.816Z,4.63
2022-11-07T02:44:55.646Z,6.78
2022-11-07T02:47:22.605Z,4.82
2022-11-07T02:49:49.636Z,7.43
2022-11-07T02:52:16.614Z,8.60
2022-11-07T02:54:43.599Z,6.28
2022-11-07T02:57:10.585Z,7.80
2022-11-07T02:59:37.576Z,6.45
2022-11-07T03:02:04.654Z,7.90
2022-11-07T03:04:31.659Z,8.25
2022-11-07T03:06:58.651Z,8.20
2022-11-07T03:09:25.632Z,7.68
2022-11-07T03:11:52.566Z,4.82
2022-11-07T03:14:19.596Z,7.53
2022-11-07T03:16:46.625Z,6.25
2022-11-07T03:19:13.606Z,4.60
2022-11-07T03:21:40.554Z,5.47
2022-11-07T03:24:07.545Z,6.15
2022-11-07T03:26:34.520Z,10.18
2022-11-07T03:29:01.531Z,8.57
2022-11-07T03:31:28.487Z,7.25
2022-11-07T03:33:55.466Z,6.35
2022-11-07T03:36:22.437Z,6.28
2022-11-07T03:38:49.418Z,6.97
2022-11-07T03:41:16.969Z,7.38
2022-11-07T03:43:45.016Z,5.68
2022-11-07T03:46:13.077Z,6.47
2022-11-07T03:48:40.403Z,7.95
2022-11-07T03:51:08.764Z,8.57
2022-11-07T03:53:36.347Z,5.93
2022-11-07T03:56:11.227Z,6.13
2022-11-07T03:58:38.574Z,7.05
2022-11-07T04:01:06.059Z,6.70
2022-11-07T04:03:33.165Z,8.32
2022-11-07T04:06:00.119Z,8.07
2022-11-07T04:08:27.269Z,7.28
2022-11-07T04:10:54.252Z,10.32
2022-11-07T04:13:21.197Z,4.57
2022-11-07T04:15:49.303Z,6.38
2022-11-07T04:18:16.260Z,6.10
2022-11-07T04:20:43.257Z,11.90
2022-11-07T04:23:10.225Z,6.15
2022-11-07T04:25:37.267Z,7.55
2022-11-07T04:28:06.802Z,6.00
2022-11-07T04:30:33.861Z,8.10
2022-11-07T04:33:01.712Z,9.02
2022-11-07T04:35:33.471Z,7.80
2022-11-07T04:40:29.386Z,6.70
2022-11-07T04:42:57.012Z,9.38
2022-11-07T04:45:24.258Z,4.60
2022-11-07T04:47:51.241Z,9.00
2022-11-07T04:50:19.518Z,8.93
2022-11-07T04:52:47.286Z,6.10
2022-11-07T04:55:24.398Z,8.35
2022-11-07T04:57:51.668Z,9.20
2022-11-07T05:00:19.960Z,8.23
2022-11-07T05:02:48.174Z,6.00
2022-11-07T05:05:15.949Z,7.68
2022-11-07T05:07:44.063Z,6.40
2022-11-07T05:10:26.839Z,8.77
2022-11-07T05:12:53.872Z,7.13
2022-11-07T05:15:21.077Z,9.65
2022-11-07T05:17:48.412Z,10.27
2022-11-07T05:20:35.783Z,7.65
2022-11-07T05:23:03.813Z,6.25
2022-11-07T05:25:30.806Z,7.85
2022-11-07T05:27:57.741Z,5.70
2022-11-07T05:30:24.693Z,9.65
2022-11-07T05:32:51.635Z,8.55
2022-11-07T05:35:18.674Z,8.50
2022-11-07T05:37:45.646Z,8.63
2022-11-07T05:40:12.625Z,8.38
2022-11-07T05:42:39.721Z,8.52
2022-11-07T05:45:07.701Z,9.05
2022-11-07T05:47:34.668Z,8.00
2022-11-07T05:50:01.597Z,6.47
2022-11-07T05:52:28.563Z,12.88
2022-11-07T05:54:55.540Z,8.38
2022-11-07T05:57:22.539Z,6.70
2022-11-07T05:59:49.546Z,7.43
2022-11-07T06:02:22.646Z,8.63
2022-11-07T06:04:49.727Z,6.82
2022-11-07T06:07:16.682Z,8.82
2022-11-07T06:09:43.615Z,11.07
2022-11-07T06:12:10.568Z,8.18
2022-11-07T06:14:37.538Z,13.15
2022-11-07T06:17:04.571Z,8.60
2022-11-07T06:19:31.499Z,7.80
2022-11-07T06:22:00.467Z,7.65
2022-11-07T06:24:27.662Z,8.68
2022-11-07T06:26:54.634Z,7.03
2022-11-07T06:29:21.596Z,7.57
2022-11-07T06:31:48.571Z,6.75
2022-11-07T06:34:15.547Z,7.40
2022-11-07T06:36:42.497Z,9.23
2022-11-07T06:39:09.458Z,9.68
2022-11-07T06:41:36.440Z,5.03
2022-11-07T06:44:03.674Z,5.55
2022-11-07T06:46:30.615Z,12.70
2022-11-07T06:48:57.703Z,6.78
2022-11-07T06:51:25.196Z,7.65
2022-11-07T06:53:52.170Z,8.77
2022-11-07T06:56:19.142Z,6.47
2022-11-07T06:58:46.131Z,10.85
2022-11-07T07:01:13.474Z,12.38
2022-11-07T07:03:42.193Z,9.80
2022-11-07T07:06:14.759Z,7.93
2022-11-07T07:08:43.160Z,9.35
2022-11-07T07:11:13.199Z,7.20
2022-11-07T07:13:40.702Z,10.75
2022-11-07T07:16:08.375Z,10.00
2022-11-07T07:18:35.467Z,7.72
2022-11-07T07:21:11.178Z,9.63
2022-11-07T07:23:38.555Z,11.38
2022-11-07T07:26:12.308Z,9.85
2022-11-07T07:28:39.350Z,11.70
2022-11-07T07:31:10.871Z,7.90
2022-11-07T07:33:37.874Z,7.57
2022-11-07T07:36:05.774Z,7.13
2022-11-07T07:38:32.818Z,7.95
2022-11-07T07:40:59.966Z,9.50
2022-11-07T07:43:28.567Z,5.20
2022-11-07T07:46:05.042Z,10.05
2022-11-07T07:48:32.705Z,6.88
2022-11-07T07:50:59.687Z,8.60
2022-11-07T07:53:26.683Z,5.38
2022-11-07T07:55:58.041Z,7.68
2022-11-07T07:58:26.144Z,6.70
2022-11-07T08:00:54.761Z,6.07
2022-11-07T08:03:21.783Z,12.63
2022-11-07T08:05:53.782Z,7.30
2022-11-07T08:08:21.066Z,6.85
2022-11-07T08:10:48.320Z,8.70
2022-11-07T08:13:15.625Z,6.97
2022-11-07T08:15:42.781Z,11.65
2022-11-07T08:18:09.779Z,10.88
2022-11-07T08:20:36.782Z,7.18
2022-11-07T08:23:11.040Z,7.88
2022-11-07T08:25:41.804Z,7.95
2022-11-07T08:28:08.797Z,6.38
2022-11-07T08:30:35.801Z,9.40
2022-11-07T08:33:03.255Z,7.07
2022-11-07T08:35:31.320Z,9.57
2022-11-07T08:37:59.037Z,7.53
2022-11-07T08:40:26.680Z,6.57
2022-11-07T08:42:58.823Z,7.32
2022-11-07T08:45:25.950Z,4.93
2022-11-07T08:47:57.033Z,10.77
2022-11-07T08:50:24.917Z,5.90
2022-11-07T08:52:52.275Z,4.38
2022-11-07T08:55:19.279Z,6.30
2022-11-07T08:57:46.245Z,7.47
2022-11-07T09:00:13.683Z,5.47
2022-11-07T09:03:23.790Z,7.95
2022-11-07T09:05:27.792Z,9.00
2022-11-07T09:07:54.746Z,6.28
2022-11-07T09:10:21.744Z,11.85
2022-11-07T09:12:50.349Z,7.20
2022-11-07T09:15:18.304Z,7.07
2022-11-07T09:17:45.861Z,7.35
2022-11-07T09:20:13.948Z,4.55
2022-11-07T09:22:41.734Z,7.70
2022-11-07T09:25:09.825Z,6.43
2022-11-07T09:27:37.063Z,8.85
2022-11-07T09:30:05.525Z,8.23
2022-11-07T09:32:44.887Z,7.57
2022-11-07T09:35:14.027Z,6.82
2022-11-07T09:37:42.144Z,8.00
2022-11-07T09:40:39.943Z,5.03
2022-11-07T09:43:30.049Z,11.02
2022-11-07T09:45:56.963Z,11.02
2022-11-07T09:48:31.665Z,6.10
2022-11-07T09:50:58.679Z,9.25
2022-11-07T09:53:32.554Z,9.23
2022-11-07T09:56:01.735Z,10.50
2022-11-07T09:58:33.492Z,8.63
2022-11-07T10:03:30.191Z,10.88
2022-11-07T10:06:10.955Z,10.00
2022-11-07T10:08:53.532Z,8.63
2022-11-07T10:11:32.433Z,9.43
2022-11-07T10:14:31.698Z,7.70
2022-11-07T10:17:11.729Z,7.85
2022-11-07T10:20:13.331Z,7.28
2022-11-07T10:22:45.656Z,7.75
2022-11-07T10:25:49.628Z,8.27
2022-11-07T10:28:18.835Z,11.10
2022-11-07T10:30:51.233Z,9.10
2022-11-07T10:33:36.816Z,8.55
2022-11-07T10:36:30.438Z,7.30
2022-11-07T10:38:57.949Z,6.95
2022-11-07T10:41:28.113Z,7.82
2022-11-07T10:44:07.206Z,10.05
2022-11-07T10:46:39.075Z,9.05
2022-11-07T10:49:27.197Z,7.10
2022-11-07T10:52:05.284Z,8.60
2022-11-07T10:54:32.882Z,11.38
2022-11-07T10:57:11.802Z,6.70
2022-11-07T10:59:54.784Z,9.57
2022-11-07T11:02:42.677Z,9.40
2022-11-07T11:05:26.848Z,10.73
2022-11-07T11:08:06.998Z,11.07
2022-11-07T11:10:38.896Z,11.93
2022-11-07T11:13:06.119Z,5.95
2022-11-07T11:15:43.651Z,8.73
2022-11-07T11:18:17.742Z,9.50
2022-11-07T11:20:57.218Z,8.20
2022-11-07T11:23:27.526Z,10.70
2022-11-07T11:26:14.460Z,7.00
2022-11-07T11:28:48.379Z,5.82
2022-11-07T11:31:21.673Z,7.15
2022-11-07T11:33:54.432Z,7.78
2022-11-07T11:36:29.512Z,6.95
2022-11-07T11:38:56.669Z,6.45
2022-11-07T11:41:44.380Z,8.50
2022-11-07T11:44:31.623Z,5.35
2022-11-07T11:47:10.439Z,7.82
2022-11-07T11:49:46.640Z,10.02
2022-11-07T11:52:21.635Z,9.10
2022-11-07T11:54:50.832Z,5.25
2022-11-07T11:57:23.362Z,6.30
2022-11-07T11:59:58.933Z,6.82
2022-11-07T12:02:38.317Z,6.93
2022-11-07T12:05:29.215Z,7.20
2022-11-07T12:08:12.093Z,11.73
2022-11-07T12:10:47.465Z,11.88
2022-11-07T12:13:39.694Z,4.95
2022-11-07T12:16:18.439Z,9.13
2022-11-07T12:18:45.358Z,9.05
2022-11-07T12:21:32.392Z,7.05
2022-11-07T12:24:24.125Z,8.68
2022-11-07T12:27:03.047Z,10.45
2022-11-07T12:30:10.296Z,9.88
2022-11-07T12:32:42.972Z,12.90
2022-11-07T12:35:16.692Z,7.50
2022-11-07T12:37:58.681Z,7.95
2022-11-07T12:40:43.951Z,7.45
2022-11-07T12:43:33.713Z,12.38
2022-11-07T12:46:23.535Z,5.97
2022-11-07T12:48:56.338Z,7.70
2022-11-07T12:52:01.802Z,9.35
2022-11-07T12:54:49.580Z,8.20
2022-11-07T12:57:26.590Z,8.35
2022-11-07T13:00:07.615Z,11.00
2022-11-07T13:02:34.613Z,12.93
2022-11-07T13:05:16.918Z,11.38
2022-11-07T13:07:53.518Z,5.35
2022-11-07T13:10:33.129Z,7.55
2022-11-07T13:13:08.588Z,6.53
2022-11-07T13:16:00.670Z,7.97
2022-11-07T13:18:27.621Z,8.82
2022-11-07T13:21:03.293Z,10.00
2022-11-07T13:23:30.608Z,11.27
2022-11-07T13:26:00.094Z,10.10
2022-11-07T13:28:42.200Z,11.20
2022-11-07T13:31:30.735Z,9.77
2022-11-07T13:34:17.959Z,8.10
2022-11-07T13:36:47.328Z,9.45
2022-11-07T13:39:15.471Z,8.77
2022-11-07T13:41:43.706Z,6.72
2022-11-07T13:44:22.568Z,11.23
2022-11-07T13:46:53.286Z,8.77
2022-11-07T13:49:46.783Z,9.23
2022-11-07T13:52:26.213Z,8.10
2022-11-07T13:55:08.396Z,9.45
2022-11-07T13:57:40.221Z,6.93
2022-11-07T14:00:12.768Z,8.95
2022-11-07T14:02:49.651Z,7.00
2022-11-07T14:05:18.228Z,9.13
2022-11-07T14:07:53.811Z,12.25
2022-11-07T14:10:29.204Z,9.40
2022-11-07T14:13:25.071Z,7.75
2022-11-07T14:16:26.086Z,6.03
2022-11-07T14:19:18.384Z,8.35
2022-11-07T14:21:46.903Z,12.40
2022-11-07T14:24:32.247Z,10.20
2022-11-07T14:27:04.870Z,11.07
2022-11-07T14:29:32.917Z,16.52
2022-11-07T14:32:02.563Z,19.10
2022-11-07T14:34:29.818Z,18.13
2022-11-07T14:37:00.222Z,15.02
2022-11-07T14:39:32.194Z,18.08
2022-11-07T14:42:02.607Z,15.60
2022-11-07T14:44:54.478Z,16.33
2022-11-07T14:47:26.786Z,7.82
2022-11-07T14:49:56.066Z,7.90
2022-11-07T14:52:26.485Z,10.55
2022-11-07T14:55:03.227Z,18.73
2022-11-07T14:57:34.527Z,9.90
2022-11-07T15:00:05.972Z,8.32
2022-11-07T15:02:34.101Z,14.20
2022-11-07T15:05:09.568Z,11.63
2022-11-07T15:07:47.160Z,9.23
2022-11-07T15:10:35.705Z,7.35
2022-11-07T15:13:05.438Z,9.10
2022-11-07T15:15:33.544Z,5.57
2022-11-07T15:18:05.665Z,8.20
2022-11-07T15:20:34.997Z,9.88
2022-11-07T15:23:04.275Z,7.47
2022-11-07T15:25:39.851Z,12.57
2022-11-07T15:28:29.943Z,11.27
2022-11-07T15:30:59.414Z,13.27
2022-11-07T15:33:31.322Z,7.75
2022-11-07T15:36:01.241Z,10.50
2022-11-07T15:38:29.089Z,8.32
2022-11-07T15:40:56.246Z,10.32
2022-11-07T15:43:23.506Z,5.90
2022-11-07T15:45:52.246Z,8.68
2022-11-07T15:48:23.021Z,8.68
2022-11-07T15:50:50.246Z,11.35
2022-11-07T15:53:23.223Z,9.10
2022-11-07T15:56:00.594Z,15.13
2022-11-07T15:58:29.784Z,10.00
2022-11-07T16:00:58.166Z,8.13
2022-11-07T16:03:26.709Z,10.90
2022-11-07T16:05:57.613Z,9.63
2022-11-07T16:08:24.974Z,12.50
2022-11-07T16:10:55.482Z,12.52
2022-11-07T16:13:22.549Z,9.82
2022-11-07T16:15:53.539Z,13.60
2022-11-07T16:18:22.198Z,16.45
2022-11-07T16:20:50.090Z,10.13
2022-11-07T16:23:18.030Z,14.63
2022-11-07T16:25:47.276Z,10.05
2022-11-07T16:28:30.950Z,8.98
2022-11-07T16:30:58.867Z,9.60
2022-11-07T16:33:26.771Z,13.00
2022-11-07T16:35:56.275Z,12.25
2022-11-07T16:38:24.618Z,9.85
2022-11-07T16:40:52.737Z,12.75
2022-11-07T16:43:20.228Z,11.25
2022-11-07T16:45:50.728Z,17.38
2022-11-07T16:48:21.835Z,9.30
2022-11-07T16:50:49.149Z,9.63
2022-11-07T16:53:16.293Z,8.68
2022-11-07T16:55:49.427Z,8.05
2022-11-07T16:58:26.832Z,9.00
2022-11-07T17:00:56.562Z,11.07
2022-11-07T17:03:24.466Z,13.75
2022-11-07T17:05:54.167Z,13.63
2022-11-07T17:08:24.614Z,14.13
2022-11-07T17:10:51.627Z,11.93
2022-11-07T17:13:18.682Z,7.10
2022-11-07T17:15:45.802Z,8.88
2022-11-07T17:18:23.435Z,13.23
2022-11-07T17:20:52.395Z,17.48
2022-11-07T17:23:25.304Z,13.20
2022-11-07T17:25:53.712Z,16.85
2022-11-07T17:28:21.945Z,19.25
2022-11-07T17:30:48.977Z,23.67
2022-11-07T17:33:16.016Z,28.20
2022-11-07T17:35:43.154Z,14.55
2022-11-07T17:38:15.638Z,16.67
2022-11-07T17:40:42.890Z,16.63
2022-11-07T17:43:10.072Z,11.02
2022-11-07T17:45:37.415Z,11.65
2022-11-07T17:48:04.580Z,13.60
2022-11-07T17:50:31.702Z,8.05
2022-11-07T17:52:58.745Z,11.20
2022-11-07T17:55:25.774Z,17.45
2022-11-07T17:57:53.181Z,14.20
2022-11-07T18:00:24.315Z,12.07
2022-11-07T18:02:52.276Z,14.15
2022-11-07T18:05:21.834Z,20.92
2022-11-07T18:07:48.798Z,55.03
2022-11-07T18:10:16.632Z,24.88
2022-11-07T18:12:44.198Z,15.68
2022-11-07T18:15:11.292Z,11.52
2022-11-07T18:17:38.771Z,13.18
2022-11-07T18:20:06.682Z,14.15
2022-11-07T18:22:34.107Z,18.25
2022-11-07T18:25:01.051Z,14.23
2022-11-07T18:27:28.006Z,10.38
2022-11-07T18:29:54.941Z,11.63
2022-11-07T18:32:21.887Z,13.20
2022-11-07T18:34:48.912Z,15.88
2022-11-07T18:37:15.882Z,19.02
2022-11-07T18:39:43.045Z,15.88
2022-11-07T18:42:10.179Z,14.23
2022-11-07T18:44:37.378Z,15.98
2022-11-07T18:47:04.407Z,12.25
2022-11-07T18:49:31.611Z,14.95
2022-11-07T18:51:58.583Z,16.75
2022-11-07T18:54:25.590Z,15.73
2022-11-07T18:56:52.568Z,14.40
2022-11-07T18:59:19.665Z,11.82
2022-11-07T19:01:46.728Z,15.02
2022-11-07T19:04:13.775Z,13.30
2022-11-07T19:06:40.755Z,14.77
2022-11-07T19:09:07.923Z,13.10
2022-11-07T19:11:35.013Z,17.40
2022-11-07T19:14:02.885Z,14.82
2022-11-07T19:16:30.565Z,12.88
2022-11-07T19:18:59.227Z,11.60
2022-11-07T19:21:26.336Z,17.98
2022-11-07T19:23:53.537Z,14.10
2022-11-07T19:26:20.517Z,18.73
2022-11-07T19:28:48.070Z,11.43
2022-11-07T19:31:15.877Z,14.05
2022-11-07T19:33:43.912Z,11.55
2022-11-07T19:36:17.205Z,14.57
2022-11-07T19:38:46.105Z,15.63
2022-11-07T19:41:14.070Z,12.93
2022-11-07T19:43:42.704Z,10.23
2022-11-07T19:46:35.792Z,8.30
2022-11-07T19:49:02.852Z,16.40
2022-11-07T19:51:29.817Z,15.40
2022-11-07T19:53:59.097Z,17.85
2022-11-07T19:56:30.875Z,11.52
2022-11-07T20:01:30.549Z,10.77
2022-11-07T20:03:58.035Z,7.25
2022-11-07T20:06:28.856Z,11.95
2022-11-07T20:08:56.222Z,12.03
2022-11-07T20:11:25.335Z,11.65
2022-11-07T20:13:56.318Z,11.50
2022-11-07T20:16:24.803Z,13.95
2022-11-07T20:18:51.803Z,9.98
2022-11-07T20:21:21.411Z,13.43
2022-11-07T20:23:49.443Z,9.65
2022-11-07T20:26:19.633Z,12.75
2022-11-07T20:28:47.737Z,10.00
2022-11-07T20:31:18.077Z,13.25
2022-11-07T20:33:45.153Z,15.75
2022-11-07T20:36:19.853Z,17.33
2022-11-07T20:38:47.093Z,15.55
2022-11-07T20:41:14.260Z,9.80
2022-11-07T20:43:41.706Z,13.32
2022-11-07T20:46:14.554Z,12.35
2022-11-07T20:48:41.962Z,9.05
2022-11-07T20:51:14.203Z,9.85
2022-11-07T20:53:46.764Z,9.23
2022-11-07T20:56:16.972Z,10.15
2022-11-07T20:58:44.082Z,9.60
2022-11-07T21:01:20.570Z,9.43
2022-11-07T21:03:48.055Z,12.40
2022-11-07T21:06:15.614Z,7.40
2022-11-07T21:08:48.215Z,9.55
2022-11-07T21:11:15.981Z,10.13
2022-11-07T21:13:46.613Z,10.77
2022-11-07T21:16:19.038Z,9.70
2022-11-07T21:18:46.074Z,12.60
2022-11-07T21:21:15.613Z,8.25
2022-11-07T21:23:44.211Z,10.32
2022-11-07T21:26:15.595Z,13.43
2022-11-07T21:28:50.811Z,7.20
2022-11-07T21:31:22.952Z,12.27
2022-11-07T21:33:51.939Z,8.60
2022-11-07T21:36:22.555Z,7.57
2022-11-07T21:38:49.729Z,12.93
2022-11-07T21:41:17.450Z,12.55
2022-11-07T21:43:44.455Z,10.98
2022-11-07T21:46:15.806Z,12.05
2022-11-07T21:48:43.391Z,10.93
2022-11-07T21:51:14.789Z,6.85
2022-11-07T21:53:42.240Z,10.18
2022-11-07T21:56:13.603Z,10.20
2022-11-07T21:58:40.929Z,12.95
2022-11-07T22:01:08.055Z,8.20
2022-11-07T22:04:04.335Z,8.30
2022-11-07T22:06:22.195Z,5.00
2022-11-07T22:08:49.977Z,6.28
2022-11-07T22:11:17.172Z,8.52
2022-11-07T22:13:44.506Z,8.57
2022-11-07T22:16:15.148Z,15.13
2022-11-07T22:18:42.499Z,14.82
2022-11-07T22:21:12.574Z,10.48
2022-11-07T22:23:39.758Z,12.40
2022-11-07T22:26:11.026Z,9.73
2022-11-07T22:28:44.374Z,12.55
2022-11-07T22:31:15.775Z,9.00
2022-11-07T22:33:43.924Z,9.40
2022-11-07T22:36:11.939Z,10.88
2022-11-07T22:38:39.854Z,10.35
2022-11-07T22:41:12.333Z,9.77
2022-11-07T22:43:39.357Z,7.03
2022-11-07T22:46:08.669Z,7.95
2022-11-07T22:48:35.945Z,13.50
2022-11-07T22:51:03.912Z,7.47
2022-11-07T22:53:31.254Z,9.75
2022-11-07T22:55:58.315Z,7.68
2022-11-07T22:58:31.255Z,5.03
2022-11-07T23:00:58.231Z,7.43
2022-11-07T23:03:25.270Z,6.28
2022-11-07T23:05:52.287Z,5.70
2022-11-07T23:08:19.892Z,5.90
2022-11-07T23:11:14.338Z,8.32
2022-11-07T23:13:45.168Z,8.18
2022-11-07T23:16:43.495Z,5.93
2022-11-07T23:19:15.120Z,6.25
2022-11-07T23:21:42.759Z,7.85
2022-11-07T23:24:10.278Z,6.30
2022-11-07T23:26:37.727Z,6.90
2022-11-07T23:29:17.685Z,7.05
2022-11-07T23:31:47.436Z,9.27
2022-11-07T23:34:15.378Z,5.85
2022-11-07T23:36:42.939Z,6.70
2022-11-07T23:39:13.709Z,7.43
2022-11-07T23:41:40.999Z,21.05
2022-11-07T23:44:09.891Z,7.07
2022-11-07T23:46:37.779Z,6.85
2022-11-07T23:49:04.736Z,8.10
2022-11-07T23:51:32.372Z,10.10
2022-11-07T23:53:59.871Z,12.20
2022-11-07T23:56:28.085Z,12.70
2022-11-07T23:58:55.423Z,7.22
